Terminal Aerodrome Forecast
Issued by NWS

Home | Current Version | Previous Version | Text Only | Print | Product List | Glossary On
Versions: 1 2 3 4 5 6 7 8 9 10 11 12 13 14 15 16 17
000
FTUS43 KILX 222238 AAA
TAFCMI
TAF AMD
KCMI 222238Z 2223/2318 18012G20KT P6SM BKN015 OVC025
     FM230200 17010KT P6SM BKN015
     FM230900 22009KT 5SM SHRA VCTS SCT015CB BKN025
     FM231300 26009KT P6SM BKN015
     FM231600 31008KT P6SM BKN025=

USA.gov is the U.S. government's official web portal to all federal, state and local government web resources and services.